<?xml version="1.0" encoding="UTF-8" standalone="no" ?>
<gpx xmlns="http://www.topografix.com/GPX/1/1" xmlns:xsi="http://www.w3.org/2001/XMLSchema-instance" xsi:schemaLocation="http://www.topografix.com/GPX/1/1 http://www.topografix.com/GPX/1/1/gpx.xsd" version="1.1" creator="VisuGPX - https://www.visugpx.com">
  <metadata>
    <name>Haut Jura</name>
    <desc><![CDATA[
Randonnées ]]></desc>
  </metadata>
  <wpt lat="46.53494" lon="5.92031">
    <ele>877.0546875</ele>
    <name><![CDATA[Abbaye En Grandvaux]]></name>
    <desc><![CDATA[Abbaye En Grandvaux]]></desc>
    <cmt><![CDATA[Abbaye En Grandvaux]]></cmt>
    <type><![CDATA[user]]></type>
  </wpt>
  <wpt lat="46.51158" lon="5.83825">
    <ele>913.7890625</ele>
    <name><![CDATA[Cap France Le Duchet]]></name>
    <type><![CDATA[user]]></type>
  </wpt>
  <wpt lat="46.61466" lon="5.86872">
    <ele>710.71875</ele>
    <name><![CDATA[Cascade du hérisson]]></name>
    <type><![CDATA[user]]></type>
  </wpt>
  <wpt lat="46.5758" lon="5.75141">
    <ele>542.484375</ele>
    <name><![CDATA[Clairvaux-Les-Lacs]]></name>
    <type><![CDATA[user]]></type>
  </wpt>
  <wpt lat="46.61757" lon="5.88041">
    <ele>769.328125</ele>
    <name><![CDATA[La Fromagerie]]></name>
    <type><![CDATA[user]]></type>
  </wpt>
  <wpt lat="46.61364" lon="5.85054">
    <ele>534.63671875</ele>
    <name><![CDATA[Maison Des Cascades Du Hérisson]]></name>
    <desc><![CDATA[Maison Des Cascades Du Hérisson]]></desc>
    <cmt><![CDATA[Maison Des Cascades Du Hérisson]]></cmt>
    <type><![CDATA[user]]></type>
  </wpt>
  <wpt lat="46.6097" lon="5.9042">
    <ele>943</ele>
    <name><![CDATA[Parking du Pic de l'Aigle]]></name>
    <type><![CDATA[user]]></type>
  </wpt>
  <wpt lat="46.61803" lon="5.8822">
    <ele>770.25390625</ele>
    <name><![CDATA[Parking La Fromagerie]]></name>
    <desc><![CDATA[L'Éolienne]]></desc>
    <cmt><![CDATA[L'Éolienne]]></cmt>
    <type><![CDATA[user]]></type>
  </wpt>
  <wpt lat="46.61466" lon="5.90166">
    <ele>955.24609375</ele>
    <name><![CDATA[Pic de l'Aigle]]></name>
    <type><![CDATA[user]]></type>
  </wpt>
  <wpt lat="46.51203" lon="5.84005">
    <ele>906.57421875</ele>
    <name><![CDATA[Prénovel]]></name>
    <type><![CDATA[user]]></type>
  </wpt>
  <wpt lat="46.57526" lon="5.95631">
    <ele>911.5625</ele>
    <name><![CDATA[Saint-Laurent-En-Grandvaux]]></name>
    <type><![CDATA[user]]></type>
  </wpt>
  <trk>
    <name><![CDATA[J3b - Pic de l'Aigle et belvedere des 4 lacs _C]]></name>
    <trkseg>
      <trkpt lat="46.62227" lon="5.90652">
        <ele>912.86</ele>
        <time>2019-11-12T10:03:50Z</time>
      </trkpt>
      <trkpt lat="46.62261" lon="5.90713">
        <ele>913.54</ele>
        <time>2019-11-12T10:04:01Z</time>
      </trkpt>
      <trkpt lat="46.62291" lon="5.90762">
        <ele>909.69</ele>
        <time>2019-11-12T10:07:04Z</time>
      </trkpt>
      <trkpt lat="46.6236" lon="5.90822">
        <ele>890.61</ele>
        <time>2019-11-12T10:16:03Z</time>
      </trkpt>
      <trkpt lat="46.62454" lon="5.90889">
        <ele>894.11</ele>
        <time>2019-11-12T10:16:16Z</time>
      </trkpt>
      <trkpt lat="46.62483" lon="5.90925">
        <ele>890.08</ele>
        <time>2019-11-12T10:16:38Z</time>
      </trkpt>
      <trkpt lat="46.62529" lon="5.90969">
        <ele>928.29</ele>
        <time>2019-11-12T10:27:49Z</time>
      </trkpt>
      <trkpt lat="46.62576" lon="5.91071">
        <ele>904.58</ele>
        <time>2019-11-12T10:34:55Z</time>
      </trkpt>
      <trkpt lat="46.6264" lon="5.91131">
        <ele>904.14</ele>
        <time>2019-11-12T10:35:18Z</time>
      </trkpt>
      <trkpt lat="46.62736" lon="5.91232">
        <ele>906.34</ele>
        <time>2019-11-12T10:36:48Z</time>
      </trkpt>
      <trkpt lat="46.62769" lon="5.9127">
        <ele>906.45</ele>
        <time>2019-11-12T10:37:07Z</time>
      </trkpt>
      <trkpt lat="46.62867" lon="5.91361">
        <ele>905.62</ele>
        <time>2019-11-12T10:37:19Z</time>
      </trkpt>
      <trkpt lat="46.62978" lon="5.91497">
        <ele>871.78</ele>
        <time>2019-11-12T10:44:45Z</time>
      </trkpt>
      <trkpt lat="46.63047" lon="5.91629">
        <ele>865.92</ele>
        <time>2019-11-12T10:53:23Z</time>
      </trkpt>
      <trkpt lat="46.63161" lon="5.91832">
        <ele>864.52</ele>
        <time>2019-11-12T10:53:36Z</time>
      </trkpt>
      <trkpt lat="46.63192" lon="5.91847">
        <ele>864.23</ele>
        <time>2019-11-12T10:53:43Z</time>
      </trkpt>
      <trkpt lat="46.63234" lon="5.91852">
        <ele>862.72</ele>
        <time>2019-11-12T10:53:50Z</time>
      </trkpt>
      <trkpt lat="46.63247" lon="5.91848">
        <ele>860.76</ele>
        <time>2019-11-12T10:54:12Z</time>
      </trkpt>
      <trkpt lat="46.63268" lon="5.91869">
        <ele>859.26</ele>
        <time>2019-11-12T10:54:41Z</time>
      </trkpt>
      <trkpt lat="46.63305" lon="5.91901">
        <ele>766.34</ele>
        <time>2019-11-12T11:25:25Z</time>
      </trkpt>
      <trkpt lat="46.63305" lon="5.91899">
        <ele>765.81</ele>
        <time>2019-11-12T11:25:47Z</time>
      </trkpt>
      <trkpt lat="46.63305" lon="5.919">
        <ele>766.13</ele>
        <time>2019-11-12T11:25:58Z</time>
      </trkpt>
      <trkpt lat="46.63305" lon="5.91897">
        <ele>766.19</ele>
        <time>2019-11-12T11:26:10Z</time>
      </trkpt>
      <trkpt lat="46.63308" lon="5.9191">
        <ele>765.83</ele>
        <time>2019-11-12T11:26:21Z</time>
      </trkpt>
      <trkpt lat="46.63317" lon="5.9192">
        <ele>766.73</ele>
        <time>2019-11-12T11:26:29Z</time>
      </trkpt>
      <trkpt lat="46.6334" lon="5.91935">
        <ele>767.41</ele>
        <time>2019-11-12T11:26:36Z</time>
      </trkpt>
      <trkpt lat="46.63345" lon="5.91938">
        <ele>767.31</ele>
        <time>2019-11-12T11:26:48Z</time>
      </trkpt>
      <trkpt lat="46.63347" lon="5.9194">
        <ele>767.27</ele>
        <time>2019-11-12T11:26:54Z</time>
      </trkpt>
      <trkpt lat="46.63364" lon="5.91946">
        <ele>767.95</ele>
        <time>2019-11-12T11:26:57Z</time>
      </trkpt>
      <trkpt lat="46.63377" lon="5.91935">
        <ele>768.35</ele>
        <time>2019-11-12T11:27:00Z</time>
      </trkpt>
      <trkpt lat="46.63396" lon="5.9194">
        <ele>768.45</ele>
        <time>2019-11-12T11:27:05Z</time>
      </trkpt>
      <trkpt lat="46.63402" lon="5.91942">
        <ele>768.46</ele>
        <time>2019-11-12T11:27:16Z</time>
      </trkpt>
      <trkpt lat="46.63405" lon="5.91942">
        <ele>768.47</ele>
        <time>2019-11-12T11:27:35Z</time>
      </trkpt>
      <trkpt lat="46.63409" lon="5.91942">
        <ele>769.16</ele>
        <time>2019-11-12T11:27:48Z</time>
      </trkpt>
      <trkpt lat="46.63408" lon="5.91936">
        <ele>770.31</ele>
        <time>2019-11-12T11:27:49Z</time>
      </trkpt>
      <trkpt lat="46.63416" lon="5.91933">
        <ele>771.58</ele>
        <time>2019-11-12T11:27:51Z</time>
      </trkpt>
      <trkpt lat="46.63424" lon="5.91937">
        <ele>771.6</ele>
        <time>2019-11-12T11:27:55Z</time>
      </trkpt>
      <trkpt lat="46.63451" lon="5.91931">
        <ele>773.4</ele>
        <time>2019-11-12T11:28:09Z</time>
      </trkpt>
      <trkpt lat="46.63455" lon="5.91927">
        <ele>774.05</ele>
        <time>2019-11-12T11:28:13Z</time>
      </trkpt>
      <trkpt lat="46.63463" lon="5.91918">
        <ele>774.43</ele>
        <time>2019-11-12T11:28:24Z</time>
      </trkpt>
      <trkpt lat="46.63467" lon="5.91897">
        <ele>776.47</ele>
        <time>2019-11-12T11:28:38Z</time>
      </trkpt>
      <trkpt lat="46.63467" lon="5.91896">
        <ele>776.01</ele>
        <time>2019-11-12T11:28:40Z</time>
      </trkpt>
      <trkpt lat="46.6347" lon="5.9188">
        <ele>776.94</ele>
        <time>2019-11-12T11:28:52Z</time>
      </trkpt>
      <trkpt lat="46.63473" lon="5.91868">
        <ele>778.68</ele>
        <time>2019-11-12T11:29:03Z</time>
      </trkpt>
      <trkpt lat="46.63485" lon="5.9185">
        <ele>778.46</ele>
        <time>2019-11-12T11:29:19Z</time>
      </trkpt>
      <trkpt lat="46.63493" lon="5.91833">
        <ele>778.51</ele>
        <time>2019-11-12T11:29:25Z</time>
      </trkpt>
      <trkpt lat="46.63501" lon="5.91816">
        <ele>779.82</ele>
        <time>2019-11-12T11:29:39Z</time>
      </trkpt>
      <trkpt lat="46.63512" lon="5.91803">
        <ele>780.33</ele>
        <time>2019-11-12T11:29:52Z</time>
      </trkpt>
      <trkpt lat="46.6353" lon="5.91784">
        <ele>780.87</ele>
        <time>2019-11-12T11:30:07Z</time>
      </trkpt>
      <trkpt lat="46.63548" lon="5.91772">
        <ele>780.98</ele>
        <time>2019-11-12T11:30:19Z</time>
      </trkpt>
      <trkpt lat="46.6357" lon="5.91762">
        <ele>779.91</ele>
        <time>2019-11-12T11:31:18Z</time>
      </trkpt>
      <trkpt lat="46.63582" lon="5.91752">
        <ele>779.35</ele>
        <time>2019-11-12T11:32:46Z</time>
      </trkpt>
      <trkpt lat="46.63594" lon="5.91734">
        <ele>778.25</ele>
        <time>2019-11-12T11:33:06Z</time>
      </trkpt>
      <trkpt lat="46.63598" lon="5.91718">
        <ele>777.36</ele>
        <time>2019-11-12T11:33:11Z</time>
      </trkpt>
      <trkpt lat="46.63601" lon="5.91703">
        <ele>776.82</ele>
        <time>2019-11-12T11:33:23Z</time>
      </trkpt>
      <trkpt lat="46.63606" lon="5.91688">
        <ele>776.42</ele>
        <time>2019-11-12T11:33:37Z</time>
      </trkpt>
      <trkpt lat="46.6361" lon="5.91669">
        <ele>776.18</ele>
        <time>2019-11-12T11:33:57Z</time>
      </trkpt>
      <trkpt lat="46.63612" lon="5.91658">
        <ele>775.97</ele>
        <time>2019-11-12T11:33:58Z</time>
      </trkpt>
      <trkpt lat="46.63613" lon="5.91647">
        <ele>775.76</ele>
        <time>2019-11-12T11:34:13Z</time>
      </trkpt>
      <trkpt lat="46.63616" lon="5.91638">
        <ele>775.92</ele>
        <time>2019-11-12T11:34:28Z</time>
      </trkpt>
      <trkpt lat="46.63616" lon="5.91628">
        <ele>775.93</ele>
        <time>2019-11-12T11:34:29Z</time>
      </trkpt>
      <trkpt lat="46.63624" lon="5.91606">
        <ele>775.88</ele>
        <time>2019-11-12T11:34:37Z</time>
      </trkpt>
      <trkpt lat="46.63636" lon="5.9158">
        <ele>776.28</ele>
        <time>2019-11-12T11:34:52Z</time>
      </trkpt>
      <trkpt lat="46.63641" lon="5.91567">
        <ele>776.17</ele>
        <time>2019-11-12T11:35:04Z</time>
      </trkpt>
      <trkpt lat="46.63641" lon="5.91565">
        <ele>776.16</ele>
        <time>2019-11-12T11:35:22Z</time>
      </trkpt>
      <trkpt lat="46.63643" lon="5.91563">
        <ele>777.01</ele>
        <time>2019-11-12T11:35:36Z</time>
      </trkpt>
      <trkpt lat="46.63645" lon="5.91557">
        <ele>776.31</ele>
        <time>2019-11-12T11:35:53Z</time>
      </trkpt>
      <trkpt lat="46.63649" lon="5.91549">
        <ele>776.17</ele>
        <time>2019-11-12T11:36:10Z</time>
      </trkpt>
      <trkpt lat="46.63653" lon="5.91536">
        <ele>776.25</ele>
        <time>2019-11-12T11:36:32Z</time>
      </trkpt>
      <trkpt lat="46.63655" lon="5.91531">
        <ele>776.32</ele>
        <time>2019-11-12T11:36:55Z</time>
      </trkpt>
      <trkpt lat="46.63659" lon="5.91511">
        <ele>775.65</ele>
        <time>2019-11-12T11:42:14Z</time>
      </trkpt>
      <trkpt lat="46.63661" lon="5.91489">
        <ele>775.24</ele>
        <time>2019-11-12T11:42:36Z</time>
      </trkpt>
      <trkpt lat="46.63661" lon="5.91486">
        <ele>775.1</ele>
        <time>2019-11-12T11:43:31Z</time>
      </trkpt>
      <trkpt lat="46.6366" lon="5.91476">
        <ele>775.01</ele>
        <time>2019-11-12T11:43:35Z</time>
      </trkpt>
      <trkpt lat="46.6366" lon="5.91469">
        <ele>775.27</ele>
        <time>2019-11-12T11:43:53Z</time>
      </trkpt>
      <trkpt lat="46.63662" lon="5.91463">
        <ele>776.07</ele>
        <time>2019-11-12T11:44:08Z</time>
      </trkpt>
      <trkpt lat="46.63665" lon="5.91455">
        <ele>776.23</ele>
        <time>2019-11-12T11:44:14Z</time>
      </trkpt>
      <trkpt lat="46.63674" lon="5.91437">
        <ele>775.55</ele>
        <time>2019-11-12T11:44:17Z</time>
      </trkpt>
      <trkpt lat="46.63684" lon="5.91424">
        <ele>775.88</ele>
        <time>2019-11-12T11:45:21Z</time>
      </trkpt>
      <trkpt lat="46.63698" lon="5.91415">
        <ele>775.51</ele>
        <time>2019-11-12T11:46:07Z</time>
      </trkpt>
      <trkpt lat="46.6371" lon="5.91408">
        <ele>773.28</ele>
        <time>2019-11-12T12:10:45Z</time>
      </trkpt>
      <trkpt lat="46.6371" lon="5.91388">
        <ele>793.9</ele>
        <time>2019-11-12T12:10:47Z</time>
      </trkpt>
      <trkpt lat="46.63715" lon="5.91378">
        <ele>784.8</ele>
        <time>2019-11-12T12:10:52Z</time>
      </trkpt>
      <trkpt lat="46.63715" lon="5.91376">
        <ele>793.6</ele>
        <time>2019-11-12T12:11:03Z</time>
      </trkpt>
      <trkpt lat="46.63719" lon="5.91369">
        <ele>766.76</ele>
        <time>2019-11-12T12:11:20Z</time>
      </trkpt>
      <trkpt lat="46.63722" lon="5.91357">
        <ele>792.9</ele>
        <time>2019-11-12T12:11:37Z</time>
      </trkpt>
      <trkpt lat="46.63729" lon="5.91342">
        <ele>792.2</ele>
        <time>2019-11-12T12:11:55Z</time>
      </trkpt>
      <trkpt lat="46.63738" lon="5.91329">
        <ele>789.7</ele>
        <time>2019-11-12T12:12:13Z</time>
      </trkpt>
      <trkpt lat="46.63746" lon="5.91325">
        <ele>789.7</ele>
        <time>2019-11-12T12:12:32Z</time>
      </trkpt>
      <trkpt lat="46.63753" lon="5.91311">
        <ele>778.3</ele>
        <time>2019-11-12T12:12:49Z</time>
      </trkpt>
      <trkpt lat="46.63755" lon="5.91302">
        <ele>785.4</ele>
        <time>2019-11-12T12:13:09Z</time>
      </trkpt>
      <trkpt lat="46.63763" lon="5.91291">
        <ele>776.4</ele>
        <time>2019-11-12T12:13:29Z</time>
      </trkpt>
      <trkpt lat="46.63781" lon="5.9128">
        <ele>775.8</ele>
        <time>2019-11-12T12:13:48Z</time>
      </trkpt>
      <trkpt lat="46.63796" lon="5.91289">
        <ele>783.5</ele>
        <time>2019-11-12T12:13:54Z</time>
      </trkpt>
      <trkpt lat="46.63803" lon="5.91298">
        <ele>776.9</ele>
        <time>2019-11-12T12:14:09Z</time>
      </trkpt>
      <trkpt lat="46.63837" lon="5.91299">
        <ele>761.58</ele>
        <time>2019-11-12T12:14:28Z</time>
      </trkpt>
      <trkpt lat="46.63859" lon="5.91309">
        <ele>773.4</ele>
        <time>2019-11-12T12:14:29Z</time>
      </trkpt>
      <trkpt lat="46.63875" lon="5.91328">
        <ele>759.69</ele>
        <time>2019-11-12T12:14:35Z</time>
      </trkpt>
      <trkpt lat="46.63899" lon="5.91353">
        <ele>758.35</ele>
        <time>2019-11-12T12:14:49Z</time>
      </trkpt>
      <trkpt lat="46.63907" lon="5.91354">
        <ele>756.98</ele>
        <time>2019-11-12T12:14:55Z</time>
      </trkpt>
      <trkpt lat="46.63935" lon="5.91423">
        <ele>753.61</ele>
        <time>2019-11-12T12:15:03Z</time>
      </trkpt>
      <trkpt lat="46.63975" lon="5.91467">
        <ele>750.23</ele>
        <time>2019-11-12T12:15:13Z</time>
      </trkpt>
      <trkpt lat="46.64026" lon="5.91538">
        <ele>750.14</ele>
        <time>2019-11-12T12:15:17Z</time>
      </trkpt>
      <trkpt lat="46.64057" lon="5.91576">
        <ele>747.12</ele>
        <time>2019-11-12T12:15:22Z</time>
      </trkpt>
      <trkpt lat="46.64081" lon="5.9159">
        <ele>744.06</ele>
        <time>2019-11-12T12:15:36Z</time>
      </trkpt>
      <trkpt lat="46.64087" lon="5.91594">
        <ele>744.08</ele>
        <time>2019-11-12T12:15:41Z</time>
      </trkpt>
      <trkpt lat="46.64093" lon="5.91592">
        <ele>744.13</ele>
        <time>2019-11-12T12:15:54Z</time>
      </trkpt>
      <trkpt lat="46.64132" lon="5.91655">
        <ele>742.92</ele>
        <time>2019-11-12T12:16:07Z</time>
      </trkpt>
      <trkpt lat="46.64188" lon="5.91738">
        <ele>739.65</ele>
        <time>2019-11-12T12:16:16Z</time>
      </trkpt>
      <trkpt lat="46.64202" lon="5.91759">
        <ele>737.94</ele>
        <time>2019-11-12T12:16:19Z</time>
      </trkpt>
      <trkpt lat="46.64252" lon="5.91787">
        <ele>736.28</ele>
        <time>2019-11-12T12:16:23Z</time>
      </trkpt>
      <trkpt lat="46.64337" lon="5.91871">
        <ele>737.34</ele>
        <time>2019-11-12T12:16:27Z</time>
      </trkpt>
      <trkpt lat="46.64373" lon="5.91912">
        <ele>737.93</ele>
        <time>2019-11-12T12:16:30Z</time>
      </trkpt>
      <trkpt lat="46.64401" lon="5.91929">
        <ele>738.03</ele>
        <time>2019-11-12T12:16:45Z</time>
      </trkpt>
      <trkpt lat="46.64436" lon="5.91944">
        <ele>738.8</ele>
        <time>2019-11-12T12:16:51Z</time>
      </trkpt>
      <trkpt lat="46.64451" lon="5.91943">
        <ele>743.46</ele>
        <time>2019-11-12T12:16:56Z</time>
      </trkpt>
      <trkpt lat="46.64477" lon="5.91953">
        <ele>743.2</ele>
        <time>2019-11-12T12:17:08Z</time>
      </trkpt>
      <trkpt lat="46.64488" lon="5.91914">
        <ele>745.15</ele>
        <time>2019-11-12T12:17:14Z</time>
      </trkpt>
      <trkpt lat="46.64515" lon="5.91832">
        <ele>744.48</ele>
        <time>2019-11-12T12:17:22Z</time>
      </trkpt>
      <trkpt lat="46.64542" lon="5.91788">
        <ele>744.38</ele>
        <time>2019-11-12T12:17:35Z</time>
      </trkpt>
      <trkpt lat="46.64569" lon="5.91756">
        <ele>744.68</ele>
        <time>2019-11-12T12:17:51Z</time>
      </trkpt>
      <trkpt lat="46.64612" lon="5.91686">
        <ele>744.23</ele>
        <time>2019-11-12T12:18:02Z</time>
      </trkpt>
      <trkpt lat="46.64622" lon="5.9167">
        <ele>744.49</ele>
        <time>2019-11-12T12:18:19Z</time>
      </trkpt>
      <trkpt lat="46.64639" lon="5.91622">
        <ele>744.98</ele>
        <time>2019-11-12T12:18:37Z</time>
      </trkpt>
      <trkpt lat="46.64643" lon="5.91496">
        <ele>745.34</ele>
        <time>2019-11-12T12:18:59Z</time>
      </trkpt>
      <trkpt lat="46.64632" lon="5.91468">
        <ele>749.95</ele>
        <time>2019-11-12T12:19:20Z</time>
      </trkpt>
      <trkpt lat="46.64588" lon="5.91432">
        <ele>750.01</ele>
        <time>2019-11-12T12:19:40Z</time>
      </trkpt>
      <trkpt lat="46.64544" lon="5.91391">
        <ele>750.33</ele>
        <time>2019-11-12T12:20:01Z</time>
      </trkpt>
      <trkpt lat="46.64498" lon="5.91337">
        <ele>750.72</ele>
        <time>2019-11-12T12:20:18Z</time>
      </trkpt>
      <trkpt lat="46.64496" lon="5.91309">
        <ele>750.08</ele>
        <time>2019-11-12T12:20:37Z</time>
      </trkpt>
      <trkpt lat="46.64497" lon="5.91292">
        <ele>749.38</ele>
        <time>2019-11-12T12:20:58Z</time>
      </trkpt>
      <trkpt lat="46.64506" lon="5.91191">
        <ele>747.52</ele>
        <time>2019-11-12T12:21:23Z</time>
      </trkpt>
      <trkpt lat="46.64498" lon="5.91137">
        <ele>745.58</ele>
        <time>2019-11-12T12:21:45Z</time>
      </trkpt>
      <trkpt lat="46.64483" lon="5.91076">
        <ele>745.55</ele>
        <time>2019-11-12T12:21:59Z</time>
      </trkpt>
      <trkpt lat="46.64463" lon="5.90996">
        <ele>744.49</ele>
        <time>2019-11-12T12:22:18Z</time>
      </trkpt>
      <trkpt lat="46.64447" lon="5.90929">
        <ele>743.61</ele>
        <time>2019-11-12T12:22:34Z</time>
      </trkpt>
      <trkpt lat="46.64423" lon="5.90813">
        <ele>742.39</ele>
        <time>2019-11-12T12:22:40Z</time>
      </trkpt>
      <trkpt lat="46.64422" lon="5.90791">
        <ele>742.13</ele>
        <time>2019-11-12T12:22:44Z</time>
      </trkpt>
      <trkpt lat="46.64419" lon="5.90724">
        <ele>742.08</ele>
        <time>2019-11-12T12:22:59Z</time>
      </trkpt>
      <trkpt lat="46.6441" lon="5.90659">
        <ele>741.86</ele>
        <time>2019-11-12T12:23:15Z</time>
      </trkpt>
      <trkpt lat="46.64395" lon="5.90603">
        <ele>741.79</ele>
        <time>2019-11-12T12:23:22Z</time>
      </trkpt>
      <trkpt lat="46.64395" lon="5.90568">
        <ele>741.41</ele>
        <time>2019-11-12T12:23:38Z</time>
      </trkpt>
      <trkpt lat="46.64398" lon="5.90534">
        <ele>741.18</ele>
        <time>2019-11-12T12:23:49Z</time>
      </trkpt>
      <trkpt lat="46.64396" lon="5.90475">
        <ele>742.15</ele>
        <time>2019-11-12T12:23:50Z</time>
      </trkpt>
      <trkpt lat="46.6439" lon="5.90453">
        <ele>742.28</ele>
        <time>2019-11-12T12:23:55Z</time>
      </trkpt>
      <trkpt lat="46.64376" lon="5.90399">
        <ele>743.46</ele>
        <time>2019-11-12T12:23:56Z</time>
      </trkpt>
      <trkpt lat="46.64365" lon="5.90389">
        <ele>744.72</ele>
        <time>2019-11-12T12:24:10Z</time>
      </trkpt>
      <trkpt lat="46.64303" lon="5.90386">
        <ele>744.89</ele>
        <time>2019-11-12T12:24:22Z</time>
      </trkpt>
      <trkpt lat="46.64291" lon="5.90391">
        <ele>744.69</ele>
        <time>2019-11-12T12:24:36Z</time>
      </trkpt>
      <trkpt lat="46.6428" lon="5.90406">
        <ele>745.86</ele>
        <time>2019-11-12T12:24:53Z</time>
      </trkpt>
      <trkpt lat="46.64261" lon="5.90424">
        <ele>745.81</ele>
        <time>2019-11-12T12:24:55Z</time>
      </trkpt>
      <trkpt lat="46.64248" lon="5.90434">
        <ele>746.48</ele>
        <time>2019-11-12T12:24:57Z</time>
      </trkpt>
      <trkpt lat="46.64242" lon="5.90421">
        <ele>747.96</ele>
        <time>2019-11-12T12:25:00Z</time>
      </trkpt>
      <trkpt lat="46.64238" lon="5.90411">
        <ele>749.26</ele>
        <time>2019-11-12T12:25:17Z</time>
      </trkpt>
      <trkpt lat="46.64236" lon="5.90407">
        <ele>749.12</ele>
        <time>2019-11-12T12:25:31Z</time>
      </trkpt>
      <trkpt lat="46.64235" lon="5.90401">
        <ele>749.75</ele>
        <time>2019-11-12T12:25:33Z</time>
      </trkpt>
      <trkpt lat="46.64233" lon="5.90394">
        <ele>750.03</ele>
        <time>2019-11-12T12:25:38Z</time>
      </trkpt>
      <trkpt lat="46.64233" lon="5.9039">
        <ele>750.56</ele>
        <time>2019-11-12T12:25:51Z</time>
      </trkpt>
      <trkpt lat="46.6423" lon="5.90366">
        <ele>751.57</ele>
        <time>2019-11-12T12:26:04Z</time>
      </trkpt>
      <trkpt lat="46.64228" lon="5.90357">
        <ele>750.18</ele>
        <time>2019-11-12T12:26:22Z</time>
      </trkpt>
      <trkpt lat="46.64226" lon="5.9035">
        <ele>753.08</ele>
        <time>2019-11-12T12:26:40Z</time>
      </trkpt>
      <trkpt lat="46.64221" lon="5.90348">
        <ele>753.14</ele>
        <time>2019-11-12T12:26:53Z</time>
      </trkpt>
      <trkpt lat="46.64216" lon="5.90344">
        <ele>753.17</ele>
        <time>2019-11-12T12:27:04Z</time>
      </trkpt>
      <trkpt lat="46.64209" lon="5.90337">
        <ele>754.2</ele>
        <time>2019-11-12T12:27:18Z</time>
      </trkpt>
      <trkpt lat="46.64198" lon="5.9033">
        <ele>754.9</ele>
        <time>2019-11-12T12:27:20Z</time>
      </trkpt>
      <trkpt lat="46.64181" lon="5.90323">
        <ele>756.38</ele>
        <time>2019-11-12T12:27:36Z</time>
      </trkpt>
      <trkpt lat="46.64171" lon="5.90318">
        <ele>756.75</ele>
        <time>2019-11-12T12:27:53Z</time>
      </trkpt>
      <trkpt lat="46.64155" lon="5.90309">
        <ele>759.59</ele>
        <time>2019-11-12T12:27:58Z</time>
      </trkpt>
      <trkpt lat="46.64144" lon="5.90301">
        <ele>762.79</ele>
        <time>2019-11-12T12:28:16Z</time>
      </trkpt>
      <trkpt lat="46.64133" lon="5.90291">
        <ele>765.56</ele>
        <time>2019-11-12T12:28:30Z</time>
      </trkpt>
      <trkpt lat="46.64128" lon="5.90279">
        <ele>766.53</ele>
        <time>2019-11-12T12:28:45Z</time>
      </trkpt>
      <trkpt lat="46.6412" lon="5.9027">
        <ele>768.73</ele>
        <time>2019-11-12T12:28:46Z</time>
      </trkpt>
      <trkpt lat="46.64112" lon="5.90261">
        <ele>771.32</ele>
        <time>2019-11-12T12:28:52Z</time>
      </trkpt>
      <trkpt lat="46.64103" lon="5.90248">
        <ele>773.27</ele>
        <time>2019-11-12T12:29:09Z</time>
      </trkpt>
      <trkpt lat="46.64093" lon="5.90233">
        <ele>775.88</ele>
        <time>2019-11-12T12:29:25Z</time>
      </trkpt>
      <trkpt lat="46.64087" lon="5.90219">
        <ele>777.88</ele>
        <time>2019-11-12T12:29:27Z</time>
      </trkpt>
      <trkpt lat="46.64088" lon="5.90219">
        <ele>778.19</ele>
        <time>2019-11-12T12:29:31Z</time>
      </trkpt>
      <trkpt lat="46.64085" lon="5.90223">
        <ele>777.61</ele>
        <time>2019-11-12T12:29:48Z</time>
      </trkpt>
      <trkpt lat="46.64079" lon="5.90215">
        <ele>780.22</ele>
        <time>2019-11-12T12:30:03Z</time>
      </trkpt>
      <trkpt lat="46.64073" lon="5.90191">
        <ele>779.9</ele>
        <time>2019-11-12T12:30:11Z</time>
      </trkpt>
      <trkpt lat="46.64064" lon="5.90179">
        <ele>780.54</ele>
        <time>2019-11-12T12:30:30Z</time>
      </trkpt>
      <trkpt lat="46.64058" lon="5.90174">
        <ele>781.86</ele>
        <time>2019-11-12T12:30:41Z</time>
      </trkpt>
      <trkpt lat="46.64054" lon="5.90168">
        <ele>782.19</ele>
        <time>2019-11-12T12:30:56Z</time>
      </trkpt>
      <trkpt lat="46.64047" lon="5.90148">
        <ele>783.47</ele>
        <time>2019-11-12T12:31:01Z</time>
      </trkpt>
      <trkpt lat="46.64041" lon="5.90127">
        <ele>783.4</ele>
        <time>2019-11-12T12:31:04Z</time>
      </trkpt>
      <trkpt lat="46.64037" lon="5.90119">
        <ele>783.67</ele>
        <time>2019-11-12T12:31:06Z</time>
      </trkpt>
      <trkpt lat="46.64026" lon="5.901">
        <ele>784.47</ele>
        <time>2019-11-12T12:31:18Z</time>
      </trkpt>
      <trkpt lat="46.64017" lon="5.90088">
        <ele>780.81</ele>
        <time>2019-11-12T12:31:27Z</time>
      </trkpt>
      <trkpt lat="46.64016" lon="5.90087">
        <ele>780.82</ele>
        <time>2019-11-12T12:31:43Z</time>
      </trkpt>
      <trkpt lat="46.64014" lon="5.90087">
        <ele>784.53</ele>
        <time>2019-11-12T12:31:56Z</time>
      </trkpt>
      <trkpt lat="46.64014" lon="5.90087">
        <ele>784.43</ele>
        <time>2019-11-12T12:32:03Z</time>
      </trkpt>
      <trkpt lat="46.64005" lon="5.90081">
        <ele>784.54</ele>
        <time>2019-11-12T12:32:19Z</time>
      </trkpt>
      <trkpt lat="46.63996" lon="5.90075">
        <ele>786.57</ele>
        <time>2019-11-12T12:32:34Z</time>
      </trkpt>
      <trkpt lat="46.63987" lon="5.90065">
        <ele>786.95</ele>
        <time>2019-11-12T12:32:35Z</time>
      </trkpt>
      <trkpt lat="46.6398" lon="5.90058">
        <ele>787.33</ele>
        <time>2019-11-12T12:32:48Z</time>
      </trkpt>
      <trkpt lat="46.63978" lon="5.90057">
        <ele>787.87</ele>
        <time>2019-11-12T12:33:04Z</time>
      </trkpt>
      <trkpt lat="46.63976" lon="5.90055">
        <ele>787.95</ele>
        <time>2019-11-12T12:33:12Z</time>
      </trkpt>
      <trkpt lat="46.63973" lon="5.90053">
        <ele>787.93</ele>
        <time>2019-11-12T12:33:17Z</time>
      </trkpt>
      <trkpt lat="46.63958" lon="5.90044">
        <ele>789.05</ele>
        <time>2019-11-12T12:33:34Z</time>
      </trkpt>
      <trkpt lat="46.63944" lon="5.90032">
        <ele>789.14</ele>
        <time>2019-11-12T12:33:49Z</time>
      </trkpt>
      <trkpt lat="46.63943" lon="5.90031">
        <ele>789.11</ele>
        <time>2019-11-12T12:34:00Z</time>
      </trkpt>
      <trkpt lat="46.63938" lon="5.90027">
        <ele>789.26</ele>
        <time>2019-11-12T12:34:15Z</time>
      </trkpt>
      <trkpt lat="46.63929" lon="5.90026">
        <ele>788.96</ele>
        <time>2019-11-12T12:34:31Z</time>
      </trkpt>
      <trkpt lat="46.63915" lon="5.90021">
        <ele>787.93</ele>
        <time>2019-11-12T12:34:48Z</time>
      </trkpt>
      <trkpt lat="46.63894" lon="5.9002">
        <ele>786.91</ele>
        <time>2019-11-12T12:35:06Z</time>
      </trkpt>
      <trkpt lat="46.63876" lon="5.9001">
        <ele>785.51</ele>
        <time>2019-11-12T12:35:25Z</time>
      </trkpt>
      <trkpt lat="46.63864" lon="5.90005">
        <ele>785.65</ele>
        <time>2019-11-12T12:35:46Z</time>
      </trkpt>
      <trkpt lat="46.63853" lon="5.89999">
        <ele>785</ele>
        <time>2019-11-12T12:36:01Z</time>
      </trkpt>
      <trkpt lat="46.6384" lon="5.89992">
        <ele>784.42</ele>
        <time>2019-11-12T12:36:19Z</time>
      </trkpt>
      <trkpt lat="46.63838" lon="5.89991">
        <ele>784.25</ele>
        <time>2019-11-12T12:36:25Z</time>
      </trkpt>
      <trkpt lat="46.63824" lon="5.89982">
        <ele>783.57</ele>
        <time>2019-11-12T12:36:39Z</time>
      </trkpt>
      <trkpt lat="46.63803" lon="5.89977">
        <ele>783.07</ele>
        <time>2019-11-12T12:36:55Z</time>
      </trkpt>
      <trkpt lat="46.63798" lon="5.89975">
        <ele>783.44</ele>
        <time>2019-11-12T12:37:04Z</time>
      </trkpt>
      <trkpt lat="46.63775" lon="5.89967">
        <ele>781.77</ele>
        <time>2019-11-12T12:37:14Z</time>
      </trkpt>
      <trkpt lat="46.63759" lon="5.89963">
        <ele>780.26</ele>
        <time>2019-11-12T12:37:33Z</time>
      </trkpt>
      <trkpt lat="46.6375" lon="5.89954">
        <ele>778.55</ele>
        <time>2019-11-12T12:37:35Z</time>
      </trkpt>
      <trkpt lat="46.6375" lon="5.89953">
        <ele>778.55</ele>
        <time>2019-11-12T12:37:51Z</time>
      </trkpt>
      <trkpt lat="46.63749" lon="5.89954">
        <ele>780.33</ele>
        <time>2019-11-12T12:38:07Z</time>
      </trkpt>
      <trkpt lat="46.6375" lon="5.89955">
        <ele>779.83</ele>
        <time>2019-11-12T12:38:26Z</time>
      </trkpt>
      <trkpt lat="46.63751" lon="5.89956">
        <ele>780.09</ele>
        <time>2019-11-12T12:38:41Z</time>
      </trkpt>
      <trkpt lat="46.63751" lon="5.89955">
        <ele>779.61</ele>
        <time>2019-11-12T12:38:59Z</time>
      </trkpt>
      <trkpt lat="46.63752" lon="5.89948">
        <ele>779.34</ele>
        <time>2019-11-12T12:39:20Z</time>
      </trkpt>
      <trkpt lat="46.63758" lon="5.8993">
        <ele>778.85</ele>
        <time>2019-11-12T12:39:21Z</time>
      </trkpt>
      <trkpt lat="46.63759" lon="5.89918">
        <ele>777.93</ele>
        <time>2019-11-12T12:39:37Z</time>
      </trkpt>
      <trkpt lat="46.6376" lon="5.89906">
        <ele>778.3</ele>
        <time>2019-11-12T12:39:49Z</time>
      </trkpt>
      <trkpt lat="46.63764" lon="5.89873">
        <ele>778.8</ele>
        <time>2019-11-12T12:40:04Z</time>
      </trkpt>
      <trkpt lat="46.63765" lon="5.89859">
        <ele>779.63</ele>
        <time>2019-11-12T12:40:18Z</time>
      </trkpt>
      <trkpt lat="46.63766" lon="5.89836">
        <ele>781.16</ele>
        <time>2019-11-12T12:40:32Z</time>
      </trkpt>
      <trkpt lat="46.63766" lon="5.89829">
        <ele>781.07</ele>
        <time>2019-11-12T12:40:44Z</time>
      </trkpt>
      <trkpt lat="46.63766" lon="5.89825">
        <ele>781.87</ele>
        <time>2019-11-12T12:41:02Z</time>
      </trkpt>
      <trkpt lat="46.63766" lon="5.89821">
        <ele>781.92</ele>
        <time>2019-11-12T12:41:17Z</time>
      </trkpt>
      <trkpt lat="46.63762" lon="5.89805">
        <ele>781.9</ele>
        <time>2019-11-12T12:41:25Z</time>
      </trkpt>
      <trkpt lat="46.63754" lon="5.89795">
        <ele>781.59</ele>
        <time>2019-11-12T12:41:42Z</time>
      </trkpt>
      <trkpt lat="46.63739" lon="5.8979">
        <ele>779.32</ele>
        <time>2019-11-12T12:41:59Z</time>
      </trkpt>
      <trkpt lat="46.63727" lon="5.89785">
        <ele>779.08</ele>
        <time>2019-11-12T12:42:00Z</time>
      </trkpt>
      <trkpt lat="46.63721" lon="5.89776">
        <ele>779.21</ele>
        <time>2019-11-12T12:42:08Z</time>
      </trkpt>
      <trkpt lat="46.6371" lon="5.89757">
        <ele>778.99</ele>
        <time>2019-11-12T12:42:24Z</time>
      </trkpt>
      <trkpt lat="46.63702" lon="5.89743">
        <ele>780.17</ele>
        <time>2019-11-12T12:42:29Z</time>
      </trkpt>
      <trkpt lat="46.63701" lon="5.89743">
        <ele>780.25</ele>
        <time>2019-11-12T12:42:47Z</time>
      </trkpt>
      <trkpt lat="46.6369" lon="5.89737">
        <ele>781.2</ele>
        <time>2019-11-12T12:43:01Z</time>
      </trkpt>
      <trkpt lat="46.63678" lon="5.89731">
        <ele>781.29</ele>
        <time>2019-11-12T12:43:18Z</time>
      </trkpt>
      <trkpt lat="46.6367" lon="5.89727">
        <ele>781.71</ele>
        <time>2019-11-12T12:43:22Z</time>
      </trkpt>
      <trkpt lat="46.63665" lon="5.89723">
        <ele>781.81</ele>
        <time>2019-11-12T12:43:42Z</time>
      </trkpt>
      <trkpt lat="46.63649" lon="5.8971">
        <ele>781.48</ele>
        <time>2019-11-12T12:43:45Z</time>
      </trkpt>
      <trkpt lat="46.63632" lon="5.89704">
        <ele>781.93</ele>
        <time>2019-11-12T12:44:01Z</time>
      </trkpt>
      <trkpt lat="46.63623" lon="5.89705">
        <ele>780.28</ele>
        <time>2019-11-12T12:44:20Z</time>
      </trkpt>
      <trkpt lat="46.63608" lon="5.89704">
        <ele>779.85</ele>
        <time>2019-11-12T12:44:35Z</time>
      </trkpt>
      <trkpt lat="46.6359" lon="5.89705">
        <ele>778.14</ele>
        <time>2019-11-12T12:44:52Z</time>
      </trkpt>
      <trkpt lat="46.63569" lon="5.89701">
        <ele>777.62</ele>
        <time>2019-11-12T12:45:09Z</time>
      </trkpt>
      <trkpt lat="46.6355" lon="5.89701">
        <ele>775.33</ele>
        <time>2019-11-12T12:45:25Z</time>
      </trkpt>
      <trkpt lat="46.63526" lon="5.89703">
        <ele>774.64</ele>
        <time>2019-11-12T12:45:44Z</time>
      </trkpt>
      <trkpt lat="46.63501" lon="5.89709">
        <ele>772.52</ele>
        <time>2019-11-12T12:46:03Z</time>
      </trkpt>
      <trkpt lat="46.63484" lon="5.89716">
        <ele>771.13</ele>
        <time>2019-11-12T12:46:19Z</time>
      </trkpt>
      <trkpt lat="46.63463" lon="5.89721">
        <ele>769.39</ele>
        <time>2019-11-12T12:46:21Z</time>
      </trkpt>
      <trkpt lat="46.63456" lon="5.89722">
        <ele>769.83</ele>
        <time>2019-11-12T12:46:37Z</time>
      </trkpt>
      <trkpt lat="46.63444" lon="5.89709">
        <ele>768.99</ele>
        <time>2019-11-12T12:46:51Z</time>
      </trkpt>
      <trkpt lat="46.63432" lon="5.89687">
        <ele>768.57</ele>
        <time>2019-11-12T12:47:06Z</time>
      </trkpt>
      <trkpt lat="46.63425" lon="5.89673">
        <ele>768.78</ele>
        <time>2019-11-12T12:47:26Z</time>
      </trkpt>
      <trkpt lat="46.63418" lon="5.89661">
        <ele>768.62</ele>
        <time>2019-11-12T12:47:45Z</time>
      </trkpt>
      <trkpt lat="46.63409" lon="5.89635">
        <ele>767.17</ele>
        <time>2019-11-12T12:48:06Z</time>
      </trkpt>
      <trkpt lat="46.63408" lon="5.89632">
        <ele>765.98</ele>
        <time>2019-11-12T12:48:24Z</time>
      </trkpt>
      <trkpt lat="46.63404" lon="5.8961">
        <ele>765.58</ele>
        <time>2019-11-12T12:48:44Z</time>
      </trkpt>
      <trkpt lat="46.63402" lon="5.89584">
        <ele>764.72</ele>
        <time>2019-11-12T12:49:02Z</time>
      </trkpt>
      <trkpt lat="46.63404" lon="5.89548">
        <ele>764.13</ele>
        <time>2019-11-12T12:49:23Z</time>
      </trkpt>
      <trkpt lat="46.63406" lon="5.89521">
        <ele>762.8</ele>
        <time>2019-11-12T12:49:40Z</time>
      </trkpt>
      <trkpt lat="46.63408" lon="5.89489">
        <ele>761.53</ele>
        <time>2019-11-12T12:49:56Z</time>
      </trkpt>
      <trkpt lat="46.634" lon="5.89459">
        <ele>760.51</ele>
        <time>2019-11-12T12:50:16Z</time>
      </trkpt>
      <trkpt lat="46.634" lon="5.89458">
        <ele>760.22</ele>
        <time>2019-11-12T12:50:35Z</time>
      </trkpt>
      <trkpt lat="46.63392" lon="5.89434">
        <ele>759.73</ele>
        <time>2019-11-12T12:50:51Z</time>
      </trkpt>
      <trkpt lat="46.63386" lon="5.89419">
        <ele>759.57</ele>
        <time>2019-11-12T12:51:11Z</time>
      </trkpt>
      <trkpt lat="46.63379" lon="5.89397">
        <ele>760.37</ele>
        <time>2019-11-12T12:51:30Z</time>
      </trkpt>
      <trkpt lat="46.63371" lon="5.89378">
        <ele>760.43</ele>
        <time>2019-11-12T12:51:48Z</time>
      </trkpt>
      <trkpt lat="46.63363" lon="5.89351">
        <ele>760.64</ele>
        <time>2019-11-12T12:52:04Z</time>
      </trkpt>
      <trkpt lat="46.63357" lon="5.89333">
        <ele>760.39</ele>
        <time>2019-11-12T12:52:27Z</time>
      </trkpt>
      <trkpt lat="46.63339" lon="5.89318">
        <ele>761.12</ele>
        <time>2019-11-12T12:52:55Z</time>
      </trkpt>
      <trkpt lat="46.63323" lon="5.89315">
        <ele>761.11</ele>
        <time>2019-11-12T12:53:19Z</time>
      </trkpt>
      <trkpt lat="46.63313" lon="5.89311">
        <ele>762.44</ele>
        <time>2019-11-12T12:53:42Z</time>
      </trkpt>
      <trkpt lat="46.63297" lon="5.89297">
        <ele>761.98</ele>
        <time>2019-11-12T12:54:00Z</time>
      </trkpt>
      <trkpt lat="46.63282" lon="5.89277">
        <ele>762.27</ele>
        <time>2019-11-12T12:54:18Z</time>
      </trkpt>
      <trkpt lat="46.63281" lon="5.89276">
        <ele>762.63</ele>
        <time>2019-11-12T12:54:19Z</time>
      </trkpt>
      <trkpt lat="46.63275" lon="5.89268">
        <ele>763.94</ele>
        <time>2019-11-12T12:54:23Z</time>
      </trkpt>
      <trkpt lat="46.63263" lon="5.89247">
        <ele>763.93</ele>
        <time>2019-11-12T12:54:38Z</time>
      </trkpt>
      <trkpt lat="46.63261" lon="5.8924">
        <ele>765.13</ele>
        <time>2019-11-12T12:55:03Z</time>
      </trkpt>
      <trkpt lat="46.63257" lon="5.89213">
        <ele>764.69</ele>
        <time>2019-11-12T12:55:26Z</time>
      </trkpt>
      <trkpt lat="46.63255" lon="5.89189">
        <ele>764.9</ele>
        <time>2019-11-12T12:55:55Z</time>
      </trkpt>
      <trkpt lat="46.63253" lon="5.89175">
        <ele>765.23</ele>
        <time>2019-11-12T12:56:17Z</time>
      </trkpt>
      <trkpt lat="46.63248" lon="5.89173">
        <ele>764.73</ele>
        <time>2019-11-12T12:56:37Z</time>
      </trkpt>
      <trkpt lat="46.63228" lon="5.8916">
        <ele>765.21</ele>
        <time>2019-11-12T12:56:58Z</time>
      </trkpt>
      <trkpt lat="46.63225" lon="5.89159">
        <ele>764.73</ele>
        <time>2019-11-12T12:57:14Z</time>
      </trkpt>
      <trkpt lat="46.6321" lon="5.89146">
        <ele>765.18</ele>
        <time>2019-11-12T12:57:31Z</time>
      </trkpt>
      <trkpt lat="46.63194" lon="5.89126">
        <ele>764.71</ele>
        <time>2019-11-12T12:57:47Z</time>
      </trkpt>
      <trkpt lat="46.63184" lon="5.8911">
        <ele>765.12</ele>
        <time>2019-11-12T12:58:06Z</time>
      </trkpt>
      <trkpt lat="46.63173" lon="5.8909">
        <ele>765.73</ele>
        <time>2019-11-12T12:58:22Z</time>
      </trkpt>
      <trkpt lat="46.63163" lon="5.89071">
        <ele>767.04</ele>
        <time>2019-11-12T12:58:37Z</time>
      </trkpt>
      <trkpt lat="46.63154" lon="5.89052">
        <ele>767.88</ele>
        <time>2019-11-12T12:58:52Z</time>
      </trkpt>
      <trkpt lat="46.63141" lon="5.8903">
        <ele>767.74</ele>
        <time>2019-11-12T12:59:09Z</time>
      </trkpt>
      <trkpt lat="46.63131" lon="5.89005">
        <ele>768.97</ele>
        <time>2019-11-12T12:59:30Z</time>
      </trkpt>
      <trkpt lat="46.63122" lon="5.88985">
        <ele>770.03</ele>
        <time>2019-11-12T12:59:47Z</time>
      </trkpt>
      <trkpt lat="46.6312" lon="5.88983">
        <ele>769.2</ele>
        <time>2019-11-12T13:00:06Z</time>
      </trkpt>
      <trkpt lat="46.63106" lon="5.88971">
        <ele>769.19</ele>
        <time>2019-11-12T13:00:24Z</time>
      </trkpt>
      <trkpt lat="46.63096" lon="5.88959">
        <ele>769.73</ele>
        <time>2019-11-12T13:00:27Z</time>
      </trkpt>
      <trkpt lat="46.63084" lon="5.88945">
        <ele>769.39</ele>
        <time>2019-11-12T13:00:45Z</time>
      </trkpt>
      <trkpt lat="46.63069" lon="5.88924">
        <ele>770.33</ele>
        <time>2019-11-12T13:01:01Z</time>
      </trkpt>
      <trkpt lat="46.63056" lon="5.88906">
        <ele>771.04</ele>
        <time>2019-11-12T13:01:06Z</time>
      </trkpt>
      <trkpt lat="46.63046" lon="5.88884">
        <ele>771.49</ele>
        <time>2019-11-12T13:01:19Z</time>
      </trkpt>
      <trkpt lat="46.63031" lon="5.88869">
        <ele>772.22</ele>
        <time>2019-11-12T13:01:37Z</time>
      </trkpt>
      <trkpt lat="46.63017" lon="5.88851">
        <ele>772.52</ele>
        <time>2019-11-12T13:01:42Z</time>
      </trkpt>
      <trkpt lat="46.63003" lon="5.8884">
        <ele>772.15</ele>
        <time>2019-11-12T13:01:46Z</time>
      </trkpt>
      <trkpt lat="46.62989" lon="5.88819">
        <ele>772.71</ele>
        <time>2019-11-12T13:01:50Z</time>
      </trkpt>
      <trkpt lat="46.62978" lon="5.88815">
        <ele>773.75</ele>
        <time>2019-11-12T13:01:55Z</time>
      </trkpt>
      <trkpt lat="46.62972" lon="5.88808">
        <ele>773.13</ele>
        <time>2019-11-12T13:02:08Z</time>
      </trkpt>
      <trkpt lat="46.62957" lon="5.8879">
        <ele>774.63</ele>
        <time>2019-11-12T13:02:22Z</time>
      </trkpt>
      <trkpt lat="46.62943" lon="5.88775">
        <ele>775.23</ele>
        <time>2019-11-12T13:02:34Z</time>
      </trkpt>
      <trkpt lat="46.62932" lon="5.88761">
        <ele>776.21</ele>
        <time>2019-11-12T13:02:35Z</time>
      </trkpt>
      <trkpt lat="46.62917" lon="5.8875">
        <ele>775.99</ele>
        <time>2019-11-12T13:02:49Z</time>
      </trkpt>
      <trkpt lat="46.62906" lon="5.88737">
        <ele>776.52</ele>
        <time>2019-11-12T13:03:03Z</time>
      </trkpt>
      <trkpt lat="46.62892" lon="5.88727">
        <ele>776.47</ele>
        <time>2019-11-12T13:03:17Z</time>
      </trkpt>
      <trkpt lat="46.62885" lon="5.88714">
        <ele>777.64</ele>
        <time>2019-11-12T13:03:34Z</time>
      </trkpt>
      <trkpt lat="46.62885" lon="5.88708">
        <ele>778.04</ele>
        <time>2019-11-12T13:03:43Z</time>
      </trkpt>
      <trkpt lat="46.62881" lon="5.88705">
        <ele>777.85</ele>
        <time>2019-11-12T13:03:46Z</time>
      </trkpt>
      <trkpt lat="46.62884" lon="5.88706">
        <ele>777.29</ele>
        <time>2019-11-12T13:03:52Z</time>
      </trkpt>
      <trkpt lat="46.62883" lon="5.88709">
        <ele>776.97</ele>
        <time>2019-11-12T13:04:06Z</time>
      </trkpt>
      <trkpt lat="46.6287" lon="5.887">
        <ele>776.98</ele>
        <time>2019-11-12T13:04:15Z</time>
      </trkpt>
      <trkpt lat="46.62854" lon="5.88682">
        <ele>777.61</ele>
        <time>2019-11-12T13:04:29Z</time>
      </trkpt>
      <trkpt lat="46.62853" lon="5.8868">
        <ele>777.78</ele>
        <time>2019-11-12T13:04:45Z</time>
      </trkpt>
      <trkpt lat="46.62849" lon="5.88675">
        <ele>778.38</ele>
        <time>2019-11-12T13:04:48Z</time>
      </trkpt>
      <trkpt lat="46.62834" lon="5.88663">
        <ele>778.75</ele>
        <time>2019-11-12T13:05:02Z</time>
      </trkpt>
      <trkpt lat="46.62829" lon="5.88658">
        <ele>779.27</ele>
        <time>2019-11-12T13:05:18Z</time>
      </trkpt>
      <trkpt lat="46.62825" lon="5.88663">
        <ele>778.95</ele>
        <time>2019-11-12T13:05:33Z</time>
      </trkpt>
      <trkpt lat="46.62821" lon="5.88667">
        <ele>778.81</ele>
        <time>2019-11-12T13:05:50Z</time>
      </trkpt>
      <trkpt lat="46.62821" lon="5.88666">
        <ele>778.83</ele>
        <time>2019-11-12T13:06:09Z</time>
      </trkpt>
      <trkpt lat="46.62822" lon="5.88666">
        <ele>778.83</ele>
        <time>2019-11-12T13:06:25Z</time>
      </trkpt>
      <trkpt lat="46.62821" lon="5.88661">
        <ele>778.2</ele>
        <time>2019-11-12T13:06:43Z</time>
      </trkpt>
      <trkpt lat="46.62815" lon="5.88647">
        <ele>779.19</ele>
        <time>2019-11-12T13:06:56Z</time>
      </trkpt>
      <trkpt lat="46.62818" lon="5.88633">
        <ele>779.79</ele>
        <time>2019-11-12T13:07:16Z</time>
      </trkpt>
      <trkpt lat="46.62811" lon="5.88621">
        <ele>779.88</ele>
        <time>2019-11-12T13:07:28Z</time>
      </trkpt>
      <trkpt lat="46.62797" lon="5.88614">
        <ele>779.54</ele>
        <time>2019-11-12T13:07:42Z</time>
      </trkpt>
      <trkpt lat="46.62785" lon="5.88613">
        <ele>778.51</ele>
        <time>2019-11-12T13:08:01Z</time>
      </trkpt>
      <trkpt lat="46.62773" lon="5.88601">
        <ele>779.48</ele>
        <time>2019-11-12T13:08:18Z</time>
      </trkpt>
      <trkpt lat="46.62761" lon="5.88586">
        <ele>779.93</ele>
        <time>2019-11-12T13:08:37Z</time>
      </trkpt>
      <trkpt lat="46.62752" lon="5.88576">
        <ele>779.79</ele>
        <time>2019-11-12T13:09:00Z</time>
      </trkpt>
      <trkpt lat="46.62734" lon="5.8856">
        <ele>780.31</ele>
        <time>2019-11-12T13:09:23Z</time>
      </trkpt>
      <trkpt lat="46.62719" lon="5.88548">
        <ele>779.5</ele>
        <time>2019-11-12T13:09:44Z</time>
      </trkpt>
      <trkpt lat="46.62705" lon="5.8853">
        <ele>780.47</ele>
        <time>2019-11-12T13:09:49Z</time>
      </trkpt>
      <trkpt lat="46.62689" lon="5.88516">
        <ele>780.52</ele>
        <time>2019-11-12T13:10:05Z</time>
      </trkpt>
      <trkpt lat="46.62687" lon="5.88512">
        <ele>780.37</ele>
        <time>2019-11-12T13:10:10Z</time>
      </trkpt>
      <trkpt lat="46.62671" lon="5.88491">
        <ele>780.11</ele>
        <time>2019-11-12T13:10:20Z</time>
      </trkpt>
      <trkpt lat="46.62658" lon="5.88474">
        <ele>780.07</ele>
        <time>2019-11-12T13:10:36Z</time>
      </trkpt>
      <trkpt lat="46.62653" lon="5.88467">
        <ele>779.87</ele>
        <time>2019-11-12T13:10:53Z</time>
      </trkpt>
      <trkpt lat="46.62642" lon="5.88453">
        <ele>779.74</ele>
        <time>2019-11-12T13:11:08Z</time>
      </trkpt>
      <trkpt lat="46.62626" lon="5.88437">
        <ele>779.51</ele>
        <time>2019-11-12T13:11:25Z</time>
      </trkpt>
      <trkpt lat="46.62622" lon="5.88434">
        <ele>780.66</ele>
        <time>2019-11-12T13:11:42Z</time>
      </trkpt>
      <trkpt lat="46.62619" lon="5.88432">
        <ele>780.21</ele>
        <time>2019-11-12T13:11:44Z</time>
      </trkpt>
      <trkpt lat="46.62615" lon="5.8843">
        <ele>780.29</ele>
        <time>2019-11-12T13:11:50Z</time>
      </trkpt>
      <trkpt lat="46.6261" lon="5.88427">
        <ele>780.53</ele>
        <time>2019-11-12T13:12:01Z</time>
      </trkpt>
      <trkpt lat="46.62602" lon="5.88414">
        <ele>780.49</ele>
        <time>2019-11-12T13:12:20Z</time>
      </trkpt>
      <trkpt lat="46.62595" lon="5.88395">
        <ele>780.09</ele>
        <time>2019-11-12T13:12:39Z</time>
      </trkpt>
      <trkpt lat="46.62587" lon="5.88384">
        <ele>780.67</ele>
        <time>2019-11-12T13:12:55Z</time>
      </trkpt>
      <trkpt lat="46.62586" lon="5.88383">
        <ele>780.35</ele>
        <time>2019-11-12T13:13:11Z</time>
      </trkpt>
      <trkpt lat="46.62575" lon="5.88369">
        <ele>780.37</ele>
        <time>2019-11-12T13:13:14Z</time>
      </trkpt>
      <trkpt lat="46.62562" lon="5.88357">
        <ele>779.56</ele>
        <time>2019-11-12T13:13:31Z</time>
      </trkpt>
      <trkpt lat="46.62547" lon="5.8835">
        <ele>780.68</ele>
        <time>2019-11-12T13:13:51Z</time>
      </trkpt>
      <trkpt lat="46.6254" lon="5.88344">
        <ele>781.99</ele>
        <time>2019-11-12T13:13:58Z</time>
      </trkpt>
      <trkpt lat="46.62532" lon="5.88333">
        <ele>781.97</ele>
        <time>2019-11-12T13:14:14Z</time>
      </trkpt>
      <trkpt lat="46.6253" lon="5.88329">
        <ele>782.35</ele>
        <time>2019-11-12T13:14:27Z</time>
      </trkpt>
      <trkpt lat="46.62525" lon="5.88322">
        <ele>781.86</ele>
        <time>2019-11-12T13:14:49Z</time>
      </trkpt>
      <trkpt lat="46.62517" lon="5.88315">
        <ele>782.84</ele>
        <time>2019-11-12T13:15:04Z</time>
      </trkpt>
      <trkpt lat="46.6251" lon="5.88309">
        <ele>783.7</ele>
        <time>2019-11-12T13:15:09Z</time>
      </trkpt>
      <trkpt lat="46.625" lon="5.88298">
        <ele>784.64</ele>
        <time>2019-11-12T13:15:24Z</time>
      </trkpt>
      <trkpt lat="46.6249" lon="5.88285">
        <ele>784.58</ele>
        <time>2019-11-12T13:15:43Z</time>
      </trkpt>
      <trkpt lat="46.62488" lon="5.88283">
        <ele>784.52</ele>
        <time>2019-11-12T13:15:49Z</time>
      </trkpt>
      <trkpt lat="46.62474" lon="5.8827">
        <ele>784.64</ele>
        <time>2019-11-12T13:16:05Z</time>
      </trkpt>
      <trkpt lat="46.62464" lon="5.88253">
        <ele>786.02</ele>
        <time>2019-11-12T13:16:23Z</time>
      </trkpt>
      <trkpt lat="46.62452" lon="5.88239">
        <ele>787.05</ele>
        <time>2019-11-12T13:16:43Z</time>
      </trkpt>
      <trkpt lat="46.6244" lon="5.88217">
        <ele>787.05</ele>
        <time>2019-11-12T13:17:01Z</time>
      </trkpt>
      <trkpt lat="46.62424" lon="5.882">
        <ele>788.31</ele>
        <time>2019-11-12T13:17:15Z</time>
      </trkpt>
      <trkpt lat="46.62409" lon="5.88189">
        <ele>787.95</ele>
        <time>2019-11-12T13:17:33Z</time>
      </trkpt>
      <trkpt lat="46.62392" lon="5.88173">
        <ele>787.79</ele>
        <time>2019-11-12T13:18:04Z</time>
      </trkpt>
      <trkpt lat="46.62378" lon="5.88166">
        <ele>787.69</ele>
        <time>2019-11-12T13:20:47Z</time>
      </trkpt>
      <trkpt lat="46.62356" lon="5.88159">
        <ele>787.71</ele>
        <time>2019-11-12T13:20:56Z</time>
      </trkpt>
      <trkpt lat="46.62341" lon="5.88157">
        <ele>787.19</ele>
        <time>2019-11-12T13:21:06Z</time>
      </trkpt>
      <trkpt lat="46.62325" lon="5.88156">
        <ele>786.31</ele>
        <time>2019-11-12T13:21:52Z</time>
      </trkpt>
      <trkpt lat="46.62321" lon="5.88152">
        <ele>785.87</ele>
        <time>2019-11-12T13:21:58Z</time>
      </trkpt>
      <trkpt lat="46.62305" lon="5.88148">
        <ele>784.23</ele>
        <time>2019-11-12T13:22:14Z</time>
      </trkpt>
      <trkpt lat="46.62302" lon="5.88143">
        <ele>785.03</ele>
        <time>2019-11-12T13:22:27Z</time>
      </trkpt>
      <trkpt lat="46.62298" lon="5.88142">
        <ele>784.45</ele>
        <time>2019-11-12T13:22:42Z</time>
      </trkpt>
      <trkpt lat="46.62297" lon="5.88142">
        <ele>784.91</ele>
        <time>2019-11-12T13:23:19Z</time>
      </trkpt>
      <trkpt lat="46.62287" lon="5.88148">
        <ele>783.21</ele>
        <time>2019-11-12T13:24:49Z</time>
      </trkpt>
      <trkpt lat="46.62282" lon="5.8815">
        <ele>783.16</ele>
        <time>2019-11-12T13:25:02Z</time>
      </trkpt>
      <trkpt lat="46.62265" lon="5.88154">
        <ele>781.55</ele>
        <time>2019-11-12T13:25:08Z</time>
      </trkpt>
      <trkpt lat="46.62259" lon="5.88155">
        <ele>781.66</ele>
        <time>2019-11-12T13:25:30Z</time>
      </trkpt>
      <trkpt lat="46.62249" lon="5.88158">
        <ele>780.73</ele>
        <time>2019-11-12T13:25:45Z</time>
      </trkpt>
      <trkpt lat="46.62232" lon="5.88161">
        <ele>779.76</ele>
        <time>2019-11-12T13:25:54Z</time>
      </trkpt>
      <trkpt lat="46.62212" lon="5.88164">
        <ele>777.56</ele>
        <time>2019-11-12T13:26:00Z</time>
      </trkpt>
      <trkpt lat="46.62194" lon="5.88167">
        <ele>776.63</ele>
        <time>2019-11-12T13:26:03Z</time>
      </trkpt>
      <trkpt lat="46.62174" lon="5.88172">
        <ele>774.35</ele>
        <time>2019-11-12T13:26:19Z</time>
      </trkpt>
      <trkpt lat="46.62154" lon="5.88175">
        <ele>773.53</ele>
        <time>2019-11-12T13:26:33Z</time>
      </trkpt>
      <trkpt lat="46.62151" lon="5.88175">
        <ele>773.47</ele>
        <time>2019-11-12T13:26:47Z</time>
      </trkpt>
      <trkpt lat="46.62145" lon="5.88178">
        <ele>773.59</ele>
        <time>2019-11-12T13:26:54Z</time>
      </trkpt>
      <trkpt lat="46.62132" lon="5.88175">
        <ele>771.6</ele>
        <time>2019-11-12T13:27:10Z</time>
      </trkpt>
      <trkpt lat="46.62108" lon="5.88167">
        <ele>770.32</ele>
        <time>2019-11-12T13:27:16Z</time>
      </trkpt>
      <trkpt lat="46.62084" lon="5.88166">
        <ele>767.89</ele>
        <time>2019-11-12T13:27:31Z</time>
      </trkpt>
      <trkpt lat="46.62063" lon="5.88164">
        <ele>767.99</ele>
        <time>2019-11-12T13:27:44Z</time>
      </trkpt>
      <trkpt lat="46.62045" lon="5.88158">
        <ele>766.19</ele>
        <time>2019-11-12T13:28:00Z</time>
      </trkpt>
      <trkpt lat="46.62042" lon="5.88157">
        <ele>764.8</ele>
        <time>2019-11-12T13:28:18Z</time>
      </trkpt>
      <trkpt lat="46.6202" lon="5.88148">
        <ele>763.67</ele>
        <time>2019-11-12T13:28:36Z</time>
      </trkpt>
      <trkpt lat="46.61997" lon="5.88141">
        <ele>764.16</ele>
        <time>2019-11-12T13:28:47Z</time>
      </trkpt>
      <trkpt lat="46.6199" lon="5.88135">
        <ele>763.08</ele>
        <time>2019-11-12T13:29:06Z</time>
      </trkpt>
      <trkpt lat="46.61972" lon="5.8813">
        <ele>762.53</ele>
        <time>2019-11-12T13:29:23Z</time>
      </trkpt>
      <trkpt lat="46.61964" lon="5.88127">
        <ele>762.45</ele>
        <time>2019-11-12T13:29:39Z</time>
      </trkpt>
      <trkpt lat="46.6194" lon="5.88117">
        <ele>761.25</ele>
        <time>2019-11-12T13:29:55Z</time>
      </trkpt>
      <trkpt lat="46.61924" lon="5.88119">
        <ele>760.47</ele>
        <time>2019-11-12T13:30:11Z</time>
      </trkpt>
      <trkpt lat="46.61918" lon="5.8812">
        <ele>760.52</ele>
        <time>2019-11-12T13:30:30Z</time>
      </trkpt>
      <trkpt lat="46.61902" lon="5.88118">
        <ele>760.34</ele>
        <time>2019-11-12T13:30:35Z</time>
      </trkpt>
      <trkpt lat="46.6188" lon="5.88112">
        <ele>759.45</ele>
        <time>2019-11-12T13:30:52Z</time>
      </trkpt>
      <trkpt lat="46.61874" lon="5.88112">
        <ele>759.24</ele>
        <time>2019-11-12T13:31:10Z</time>
      </trkpt>
      <trkpt lat="46.61865" lon="5.88114">
        <ele>758.82</ele>
        <time>2019-11-12T13:31:18Z</time>
      </trkpt>
      <trkpt lat="46.61853" lon="5.88115">
        <ele>758.33</ele>
        <time>2019-11-12T13:31:20Z</time>
      </trkpt>
      <trkpt lat="46.6183" lon="5.88123">
        <ele>756.71</ele>
        <time>2019-11-12T13:31:40Z</time>
      </trkpt>
      <trkpt lat="46.61825" lon="5.8815">
        <ele>755.64</ele>
        <time>2019-11-12T13:31:58Z</time>
      </trkpt>
      <trkpt lat="46.61825" lon="5.88161">
        <ele>755.52</ele>
        <time>2019-11-12T13:32:17Z</time>
      </trkpt>
      <trkpt lat="46.61825" lon="5.88159">
        <ele>755.98</ele>
        <time>2019-11-12T13:32:35Z</time>
      </trkpt>
      <trkpt lat="46.61825" lon="5.88187">
        <ele>755.16</ele>
        <time>2019-11-12T13:32:52Z</time>
      </trkpt>
      <trkpt lat="46.61824" lon="5.88197">
        <ele>755.89</ele>
        <time>2019-11-12T13:32:53Z</time>
      </trkpt>
      <trkpt lat="46.61816" lon="5.88205">
        <ele>755.84</ele>
        <time>2019-11-12T13:33:00Z</time>
      </trkpt>
      <trkpt lat="46.61808" lon="5.88212">
        <ele>756.24</ele>
        <time>2019-11-12T13:33:03Z</time>
      </trkpt>
      <trkpt lat="46.61805" lon="5.88215">
        <ele>756.09</ele>
        <time>2019-11-12T13:33:13Z</time>
      </trkpt>
      <trkpt lat="46.61809" lon="5.88213">
        <ele>755.94</ele>
        <time>2019-11-12T13:33:25Z</time>
      </trkpt>
      <trkpt lat="46.61822" lon="5.88203">
        <ele>756.25</ele>
        <time>2019-11-12T13:33:54Z</time>
      </trkpt>
      <trkpt lat="46.61825" lon="5.88199">
        <ele>755.96</ele>
        <time>2019-11-12T13:33:55Z</time>
      </trkpt>
      <trkpt lat="46.61829" lon="5.88183">
        <ele>755.98</ele>
        <time>2019-11-12T13:33:57Z</time>
      </trkpt>
      <trkpt lat="46.61829" lon="5.88173">
        <ele>756.9</ele>
        <time>2019-11-12T13:34:02Z</time>
      </trkpt>
      <trkpt lat="46.61827" lon="5.88171">
        <ele>757.26</ele>
        <time>2019-11-12T13:34:16Z</time>
      </trkpt>
      <trkpt lat="46.61825" lon="5.88156">
        <ele>758.19</ele>
        <time>2019-11-12T13:34:45Z</time>
      </trkpt>
      <trkpt lat="46.61825" lon="5.88148">
        <ele>757.67</ele>
        <time>2019-11-12T13:34:57Z</time>
      </trkpt>
      <trkpt lat="46.61835" lon="5.88116">
        <ele>759.92</ele>
        <time>2019-11-12T13:35:06Z</time>
      </trkpt>
      <trkpt lat="46.61848" lon="5.88115">
        <ele>762.07</ele>
        <time>2019-11-12T13:35:15Z</time>
      </trkpt>
      <trkpt lat="46.61857" lon="5.88118">
        <ele>761.84</ele>
        <time>2019-11-12T13:35:22Z</time>
      </trkpt>
      <trkpt lat="46.61863" lon="5.88122">
        <ele>761.98</ele>
        <time>2019-11-12T13:35:43Z</time>
      </trkpt>
      <trkpt lat="46.61866" lon="5.88125">
        <ele>761.91</ele>
        <time>2019-11-12T13:35:57Z</time>
      </trkpt>
      <trkpt lat="46.61881" lon="5.88144">
        <ele>761.85</ele>
        <time>2019-11-12T13:36:13Z</time>
      </trkpt>
      <trkpt lat="46.61888" lon="5.88153">
        <ele>761.53</ele>
        <time>2019-11-12T13:36:29Z</time>
      </trkpt>
      <trkpt lat="46.61897" lon="5.88161">
        <ele>761.23</ele>
        <time>2019-11-12T13:36:46Z</time>
      </trkpt>
      <trkpt lat="46.61903" lon="5.88169">
        <ele>761.27</ele>
        <time>2019-11-12T13:37:04Z</time>
      </trkpt>
      <trkpt lat="46.61907" lon="5.88192">
        <ele>760.38</ele>
        <time>2019-11-12T13:37:20Z</time>
      </trkpt>
      <trkpt lat="46.61907" lon="5.88197">
        <ele>759.57</ele>
        <time>2019-11-12T13:37:38Z</time>
      </trkpt>
      <trkpt lat="46.6191" lon="5.88212">
        <ele>760.69</ele>
        <time>2019-11-12T13:37:53Z</time>
      </trkpt>
      <trkpt lat="46.61907" lon="5.88224">
        <ele>760.17</ele>
        <time>2019-11-12T13:38:08Z</time>
      </trkpt>
      <trkpt lat="46.61904" lon="5.8824">
        <ele>760.79</ele>
        <time>2019-11-12T13:38:21Z</time>
      </trkpt>
      <trkpt lat="46.619" lon="5.88262">
        <ele>761.92</ele>
        <time>2019-11-12T13:38:34Z</time>
      </trkpt>
      <trkpt lat="46.61897" lon="5.88275">
        <ele>763.09</ele>
        <time>2019-11-12T13:38:38Z</time>
      </trkpt>
      <trkpt lat="46.61891" lon="5.88288">
        <ele>763.95</ele>
        <time>2019-11-12T13:38:43Z</time>
      </trkpt>
      <trkpt lat="46.61881" lon="5.88307">
        <ele>766.02</ele>
        <time>2019-11-12T13:38:58Z</time>
      </trkpt>
      <trkpt lat="46.61874" lon="5.88325">
        <ele>767.58</ele>
        <time>2019-11-12T13:39:08Z</time>
      </trkpt>
      <trkpt lat="46.61862" lon="5.88344">
        <ele>770.04</ele>
        <time>2019-11-12T13:39:15Z</time>
      </trkpt>
      <trkpt lat="46.61848" lon="5.8836">
        <ele>771.54</ele>
        <time>2019-11-12T13:39:30Z</time>
      </trkpt>
      <trkpt lat="46.61833" lon="5.88371">
        <ele>774.18</ele>
        <time>2019-11-12T13:39:46Z</time>
      </trkpt>
      <trkpt lat="46.61818" lon="5.88387">
        <ele>775.73</ele>
        <time>2019-11-12T13:40:00Z</time>
      </trkpt>
      <trkpt lat="46.61815" lon="5.88396">
        <ele>775.72</ele>
        <time>2019-11-12T13:40:04Z</time>
      </trkpt>
      <trkpt lat="46.61816" lon="5.88415">
        <ele>774.13</ele>
        <time>2019-11-12T13:40:20Z</time>
      </trkpt>
      <trkpt lat="46.61818" lon="5.88435">
        <ele>772.7</ele>
        <time>2019-11-12T13:40:39Z</time>
      </trkpt>
      <trkpt lat="46.61817" lon="5.88442">
        <ele>771.96</ele>
        <time>2019-11-12T13:40:55Z</time>
      </trkpt>
      <trkpt lat="46.61816" lon="5.88445">
        <ele>773.17</ele>
        <time>2019-11-12T13:41:02Z</time>
      </trkpt>
      <trkpt lat="46.61813" lon="5.8846">
        <ele>772.12</ele>
        <time>2019-11-12T13:41:20Z</time>
      </trkpt>
      <trkpt lat="46.61815" lon="5.88485">
        <ele>771.74</ele>
        <time>2019-11-12T13:41:34Z</time>
      </trkpt>
      <trkpt lat="46.61814" lon="5.88515">
        <ele>771.71</ele>
        <time>2019-11-12T13:41:52Z</time>
      </trkpt>
      <trkpt lat="46.61817" lon="5.88543">
        <ele>770.55</ele>
        <time>2019-11-12T13:42:11Z</time>
      </trkpt>
      <trkpt lat="46.61815" lon="5.88574">
        <ele>767.15</ele>
        <time>2019-11-12T13:42:22Z</time>
      </trkpt>
      <trkpt lat="46.61815" lon="5.88576">
        <ele>767.13</ele>
        <time>2019-11-12T13:42:41Z</time>
      </trkpt>
      <trkpt lat="46.61812" lon="5.88594">
        <ele>769.48</ele>
        <time>2019-11-12T13:42:58Z</time>
      </trkpt>
      <trkpt lat="46.61812" lon="5.886">
        <ele>769.68</ele>
        <time>2019-11-12T13:43:07Z</time>
      </trkpt>
      <trkpt lat="46.61811" lon="5.8862">
        <ele>768.14</ele>
        <time>2019-11-12T13:43:15Z</time>
      </trkpt>
      <trkpt lat="46.61819" lon="5.88639">
        <ele>767.81</ele>
        <time>2019-11-12T13:43:31Z</time>
      </trkpt>
      <trkpt lat="46.61825" lon="5.88642">
        <ele>767.56</ele>
        <time>2019-11-12T13:43:35Z</time>
      </trkpt>
      <trkpt lat="46.61825" lon="5.88643">
        <ele>767</ele>
        <time>2019-11-12T13:43:45Z</time>
      </trkpt>
      <trkpt lat="46.61825" lon="5.88647">
        <ele>767</ele>
        <time>2019-11-12T13:43:55Z</time>
      </trkpt>
      <trkpt lat="46.61826" lon="5.88654">
        <ele>768.04</ele>
        <time>2019-11-12T13:44:01Z</time>
      </trkpt>
      <trkpt lat="46.61829" lon="5.88653">
        <ele>766.47</ele>
        <time>2019-11-12T13:44:24Z</time>
      </trkpt>
      <trkpt lat="46.61829" lon="5.88653">
        <ele>767.35</ele>
        <time>2019-11-12T13:44:38Z</time>
      </trkpt>
      <trkpt lat="46.61829" lon="5.88655">
        <ele>767.17</ele>
        <time>2019-11-12T13:44:56Z</time>
      </trkpt>
      <trkpt lat="46.61831" lon="5.8866">
        <ele>767.56</ele>
        <time>2019-11-12T13:45:10Z</time>
      </trkpt>
      <trkpt lat="46.61832" lon="5.88672">
        <ele>766.97</ele>
        <time>2019-11-12T13:45:27Z</time>
      </trkpt>
      <trkpt lat="46.61834" lon="5.88682">
        <ele>766.44</ele>
        <time>2019-11-12T13:45:44Z</time>
      </trkpt>
      <trkpt lat="46.61841" lon="5.88722">
        <ele>764.51</ele>
        <time>2019-11-12T13:45:45Z</time>
      </trkpt>
      <trkpt lat="46.61838" lon="5.88748">
        <ele>763.38</ele>
        <time>2019-11-12T13:45:49Z</time>
      </trkpt>
      <trkpt lat="46.61841" lon="5.88776">
        <ele>762.41</ele>
        <time>2019-11-12T13:46:01Z</time>
      </trkpt>
      <trkpt lat="46.61844" lon="5.88801">
        <ele>761.26</ele>
        <time>2019-11-12T13:46:13Z</time>
      </trkpt>
      <trkpt lat="46.61841" lon="5.88814">
        <ele>760.88</ele>
        <time>2019-11-12T13:46:33Z</time>
      </trkpt>
      <trkpt lat="46.6184" lon="5.88818">
        <ele>761.23</ele>
        <time>2019-11-12T13:46:36Z</time>
      </trkpt>
      <trkpt lat="46.61837" lon="5.88827">
        <ele>760.89</ele>
        <time>2019-11-12T13:46:44Z</time>
      </trkpt>
      <trkpt lat="46.61836" lon="5.88854">
        <ele>761.06</ele>
        <time>2019-11-12T13:46:51Z</time>
      </trkpt>
      <trkpt lat="46.61834" lon="5.8888">
        <ele>760.82</ele>
        <time>2019-11-12T13:47:06Z</time>
      </trkpt>
      <trkpt lat="46.61832" lon="5.889">
        <ele>761.24</ele>
        <time>2019-11-12T13:47:21Z</time>
      </trkpt>
      <trkpt lat="46.6183" lon="5.88913">
        <ele>761.76</ele>
        <time>2019-11-12T13:47:38Z</time>
      </trkpt>
      <trkpt lat="46.61828" lon="5.88925">
        <ele>761.72</ele>
        <time>2019-11-12T13:47:41Z</time>
      </trkpt>
      <trkpt lat="46.61827" lon="5.8893">
        <ele>762.07</ele>
        <time>2019-11-12T13:47:46Z</time>
      </trkpt>
      <trkpt lat="46.61825" lon="5.88936">
        <ele>761.13</ele>
        <time>2019-11-12T13:47:51Z</time>
      </trkpt>
      <trkpt lat="46.61818" lon="5.88951">
        <ele>761.8</ele>
        <time>2019-11-12T13:48:05Z</time>
      </trkpt>
      <trkpt lat="46.61812" lon="5.88957">
        <ele>759.28</ele>
        <time>2019-11-12T13:48:23Z</time>
      </trkpt>
      <trkpt lat="46.61807" lon="5.88965">
        <ele>761.28</ele>
        <time>2019-11-12T13:48:39Z</time>
      </trkpt>
      <trkpt lat="46.61796" lon="5.88976">
        <ele>761.47</ele>
        <time>2019-11-12T13:48:54Z</time>
      </trkpt>
      <trkpt lat="46.61787" lon="5.88988">
        <ele>762.11</ele>
        <time>2019-11-12T13:49:05Z</time>
      </trkpt>
      <trkpt lat="46.61778" lon="5.88994">
        <ele>761.49</ele>
        <time>2019-11-12T13:49:20Z</time>
      </trkpt>
      <trkpt lat="46.61773" lon="5.88994">
        <ele>761.82</ele>
        <time>2019-11-12T13:49:21Z</time>
      </trkpt>
      <trkpt lat="46.61761" lon="5.88986">
        <ele>761.22</ele>
        <time>2019-11-12T13:49:32Z</time>
      </trkpt>
      <trkpt lat="46.61741" lon="5.88971">
        <ele>761.82</ele>
        <time>2019-11-12T13:49:48Z</time>
      </trkpt>
      <trkpt lat="46.61723" lon="5.88965">
        <ele>761.9</ele>
        <time>2019-11-12T13:50:09Z</time>
      </trkpt>
      <trkpt lat="46.61714" lon="5.88958">
        <ele>762.04</ele>
        <time>2019-11-12T13:50:28Z</time>
      </trkpt>
      <trkpt lat="46.61696" lon="5.88958">
        <ele>761.41</ele>
        <time>2019-11-12T13:50:47Z</time>
      </trkpt>
      <trkpt lat="46.61681" lon="5.88961">
        <ele>760.97</ele>
        <time>2019-11-12T13:51:01Z</time>
      </trkpt>
      <trkpt lat="46.61662" lon="5.88971">
        <ele>761.15</ele>
        <time>2019-11-12T13:51:22Z</time>
      </trkpt>
      <trkpt lat="46.61646" lon="5.88991">
        <ele>760.97</ele>
        <time>2019-11-12T13:51:56Z</time>
      </trkpt>
      <trkpt lat="46.61642" lon="5.89011">
        <ele>761.25</ele>
        <time>2019-11-12T13:52:19Z</time>
      </trkpt>
      <trkpt lat="46.61642" lon="5.8904">
        <ele>760.99</ele>
        <time>2019-11-12T13:52:48Z</time>
      </trkpt>
      <trkpt lat="46.61641" lon="5.89066">
        <ele>761.08</ele>
        <time>2019-11-12T13:53:13Z</time>
      </trkpt>
      <trkpt lat="46.61636" lon="5.89084">
        <ele>761.12</ele>
        <time>2019-11-12T13:53:33Z</time>
      </trkpt>
      <trkpt lat="46.61628" lon="5.89097">
        <ele>761.52</ele>
        <time>2019-11-12T13:53:50Z</time>
      </trkpt>
      <trkpt lat="46.61692" lon="5.89154">
        <ele>762.23</ele>
        <time>2019-11-12T13:54:05Z</time>
      </trkpt>
      <trkpt lat="46.61785" lon="5.89279">
        <ele>763.03</ele>
        <time>2019-11-12T13:54:25Z</time>
      </trkpt>
      <trkpt lat="46.61878" lon="5.89432">
        <ele>763.69</ele>
        <time>2019-11-12T13:54:45Z</time>
      </trkpt>
      <trkpt lat="46.61923" lon="5.89635">
        <ele>764.34</ele>
        <time>2019-11-12T13:55:02Z</time>
      </trkpt>
      <trkpt lat="46.61987" lon="5.89772">
        <ele>763.87</ele>
        <time>2019-11-12T13:55:21Z</time>
      </trkpt>
      <trkpt lat="46.61904" lon="5.89909">
        <ele>764.35</ele>
        <time>2019-11-12T13:55:32Z</time>
      </trkpt>
      <trkpt lat="46.61927" lon="5.90026">
        <ele>763.95</ele>
        <time>2019-11-12T13:55:45Z</time>
      </trkpt>
      <trkpt lat="46.61967" lon="5.9011">
        <ele>764.12</ele>
        <time>2019-11-12T13:55:59Z</time>
      </trkpt>
      <trkpt lat="46.61972" lon="5.90154">
        <ele>763.79</ele>
        <time>2019-11-12T13:56:15Z</time>
      </trkpt>
      <trkpt lat="46.61989" lon="5.90269">
        <ele>763.84</ele>
        <time>2019-11-12T13:56:26Z</time>
      </trkpt>
      <trkpt lat="46.62043" lon="5.90367">
        <ele>764.49</ele>
        <time>2019-11-12T13:56:44Z</time>
      </trkpt>
      <trkpt lat="46.62118" lon="5.90453">
        <ele>764.24</ele>
        <time>2019-11-12T13:56:49Z</time>
      </trkpt>
      <trkpt lat="46.62221" lon="5.90636">
        <ele>765.68</ele>
        <time>2019-11-12T13:57:36Z</time>
      </trkpt>
    </trkseg>
  </trk>
</gpx>